sensor_id;sensor_type;location;lat;lon;timestamp;P1;durP1;ratioP1;P2;durP2;ratioP2
17915;SDS011;9083;49.156;8.982;2022-12-15T00:01:18;40.00;;;15.73;;
17915;SDS011;9083;49.156;8.982;2022-12-15T00:04:03;39.03;;;16.60;;
17915;SDS011;9083;49.156;8.982;2022-12-15T00:06:47;32.80;;;16.33;;
17915;SDS011;9083;49.156;8.982;2022-12-15T00:09:31;34.23;;;15.50;;
17915;SDS011;9083;49.156;8.982;2022-12-15T00:12:15;32.13;;;14.10;;
17915;SDS011;9083;49.156;8.982;2022-12-15T00:14:59;35.87;;;15.77;;
17915;SDS011;9083;49.156;8.982;2022-12-15T00:17:43;33.40;;;14.40;;
17915;SDS011;9083;49.156;8.982;2022-12-15T00:20:28;31.90;;;14.93;;
17915;SDS011;9083;49.156;8.982;2022-12-15T00:23:12;30.70;;;14.37;;
17915;SDS011;9083;49.156;8.982;2022-12-15T00:25:56;35.87;;;15.13;;
17915;SDS011;9083;49.156;8.982;2022-12-15T00:28:40;28.87;;;13.93;;
17915;SDS011;9083;49.156;8.982;2022-12-15T00:31:24;28.90;;;13.27;;
17915;SDS011;9083;49.156;8.982;2022-12-15T00:34:08;33.10;;;15.63;;
17915;SDS011;9083;49.156;8.982;2022-12-15T00:36:53;33.40;;;15.17;;
17915;SDS011;9083;49.156;8.982;2022-12-15T00:39:37;33.37;;;15.17;;
17915;SDS011;9083;49.156;8.982;2022-12-15T00:42:04;33.20;;;14.47;;
17915;SDS011;9083;49.156;8.982;2022-12-15T00:44:30;37.80;;;15.13;;
17915;SDS011;9083;49.156;8.982;2022-12-15T00:46:57;30.77;;;14.27;;
17915;SDS011;9083;49.156;8.982;2022-12-15T00:49:23;31.87;;;15.13;;
17915;SDS011;9083;49.156;8.982;2022-12-15T00:52:09;29.17;;;13.90;;
17915;SDS011;9083;49.156;8.982;2022-12-15T00:54:53;32.23;;;14.03;;
17915;SDS011;9083;49.156;8.982;2022-12-15T00:57:37;29.47;;;12.87;;
17915;SDS011;9083;49.156;8.982;2022-12-15T01:00:21;27.97;;;12.97;;
17915;SDS011;9083;49.156;8.982;2022-12-15T01:03:12;26.50;;;12.63;;
17915;SDS011;9083;49.156;8.982;2022-12-15T01:05:56;26.27;;;13.53;;
17915;SDS011;9083;49.156;8.982;2022-12-15T01:08:42;33.07;;;14.87;;
17915;SDS011;9083;49.156;8.982;2022-12-15T01:11:26;31.70;;;15.37;;
17915;SDS011;9083;49.156;8.982;2022-12-15T01:14:10;32.77;;;14.43;;
17915;SDS011;9083;49.156;8.982;2022-12-15T01:16:53;33.17;;;15.30;;
17915;SDS011;9083;49.156;8.982;2022-12-15T01:19:37;33.37;;;14.50;;
17915;SDS011;9083;49.156;8.982;2022-12-15T01:22:21;26.07;;;13.07;;
17915;SDS011;9083;49.156;8.982;2022-12-15T01:24:50;41.27;;;16.03;;
17915;SDS011;9083;49.156;8.982;2022-12-15T01:27:16;36.03;;;15.37;;
17915;SDS011;9083;49.156;8.982;2022-12-15T01:29:43;33.70;;;15.13;;
17915;SDS011;9083;49.156;8.982;2022-12-15T01:32:09;29.53;;;14.17;;
17915;SDS011;9083;49.156;8.982;2022-12-15T01:34:36;35.60;;;14.87;;
17915;SDS011;9083;49.156;8.982;2022-12-15T01:37:02;32.77;;;15.43;;
17915;SDS011;9083;49.156;8.982;2022-12-15T01:39:29;35.30;;;13.97;;
17915;SDS011;9083;49.156;8.982;2022-12-15T01:42:16;35.43;;;15.90;;
17915;SDS011;9083;49.156;8.982;2022-12-15T01:44:42;32.67;;;15.03;;
17915;SDS011;9083;49.156;8.982;2022-12-15T01:47:10;27.73;;;14.20;;
17915;SDS011;9083;49.156;8.982;2022-12-15T01:49:37;31.33;;;14.23;;
17915;SDS011;9083;49.156;8.982;2022-12-15T01:52:04;31.63;;;15.17;;
17915;SDS011;9083;49.156;8.982;2022-12-15T01:54:32;33.83;;;15.30;;
17915;SDS011;9083;49.156;8.982;2022-12-15T01:57:01;31.30;;;14.63;;
17915;SDS011;9083;49.156;8.982;2022-12-15T01:59:31;37.27;;;17.47;;
17915;SDS011;9083;49.156;8.982;2022-12-15T02:01:59;38.57;;;15.23;;
17915;SDS011;9083;49.156;8.982;2022-12-15T02:04:25;33.57;;;15.80;;
17915;SDS011;9083;49.156;8.982;2022-12-15T02:06:52;37.87;;;15.57;;
17915;SDS011;9083;49.156;8.982;2022-12-15T02:09:18;35.33;;;15.53;;
17915;SDS011;9083;49.156;8.982;2022-12-15T02:11:49;31.40;;;15.77;;
17915;SDS011;9083;49.156;8.982;2022-12-15T02:14:20;32.00;;;15.33;;
17915;SDS011;9083;49.156;8.982;2022-12-15T02:17:03;37.10;;;15.83;;
17915;SDS011;9083;49.156;8.982;2022-12-15T02:19:49;38.27;;;16.73;;
17915;SDS011;9083;49.156;8.982;2022-12-15T02:22:26;36.30;;;15.83;;
17915;SDS011;9083;49.156;8.982;2022-12-15T02:25:02;36.67;;;16.10;;
17915;SDS011;9083;49.156;8.982;2022-12-15T02:27:46;37.13;;;16.30;;
17915;SDS011;9083;49.156;8.982;2022-12-15T02:35:39;30.87;;;15.20;;
17915;SDS011;9083;49.156;8.982;2022-12-15T02:38:08;31.77;;;14.90;;
17915;SDS011;9083;49.156;8.982;2022-12-15T02:40:34;36.57;;;17.57;;
17915;SDS011;9083;49.156;8.982;2022-12-15T02:43:01;36.67;;;17.77;;
17915;SDS011;9083;49.156;8.982;2022-12-15T02:45:30;34.80;;;15.43;;
17915;SDS011;9083;49.156;8.982;2022-12-15T02:48:00;37.00;;;16.03;;
17915;SDS011;9083;49.156;8.982;2022-12-15T02:50:38;35.07;;;15.00;;
17915;SDS011;9083;49.156;8.982;2022-12-15T02:53:11;33.27;;;15.07;;
17915;SDS011;9083;49.156;8.982;2022-12-15T02:55:40;33.30;;;14.30;;
17915;SDS011;9083;49.156;8.982;2022-12-15T02:58:12;35.27;;;15.43;;
17915;SDS011;9083;49.156;8.982;2022-12-15T03:00:41;32.07;;;15.73;;
17915;SDS011;9083;49.156;8.982;2022-12-15T03:03:08;34.87;;;17.23;;
17915;SDS011;9083;49.156;8.982;2022-12-15T03:05:35;32.50;;;16.47;;
17915;SDS011;9083;49.156;8.982;2022-12-15T03:08:03;33.43;;;15.27;;
17915;SDS011;9083;49.156;8.982;2022-12-15T03:10:29;33.07;;;15.53;;
17915;SDS011;9083;49.156;8.982;2022-12-15T03:12:56;36.80;;;14.67;;
17915;SDS011;9083;49.156;8.982;2022-12-15T03:15:25;35.33;;;14.63;;
17915;SDS011;9083;49.156;8.982;2022-12-15T03:17:52;31.83;;;15.00;;
17915;SDS011;9083;49.156;8.982;2022-12-15T03:20:18;32.67;;;16.23;;
17915;SDS011;9083;49.156;8.982;2022-12-15T03:22:45;33.37;;;15.10;;
17915;SDS011;9083;49.156;8.982;2022-12-15T03:25:13;30.93;;;15.07;;
17915;SDS011;9083;49.156;8.982;2022-12-15T03:27:39;32.97;;;15.43;;
17915;SDS011;9083;49.156;8.982;2022-12-15T03:30:06;33.97;;;15.77;;
17915;SDS011;9083;49.156;8.982;2022-12-15T03:32:33;34.90;;;16.07;;
17915;SDS011;9083;49.156;8.982;2022-12-15T03:34:59;33.97;;;16.53;;
17915;SDS011;9083;49.156;8.982;2022-12-15T03:37:26;38.90;;;16.13;;
17915;SDS011;9083;49.156;8.982;2022-12-15T03:39:52;28.97;;;15.07;;
17915;SDS011;9083;49.156;8.982;2022-12-15T03:42:20;32.33;;;15.67;;
17915;SDS011;9083;49.156;8.982;2022-12-15T03:45:07;35.80;;;15.77;;
17915;SDS011;9083;49.156;8.982;2022-12-15T03:47:34;32.20;;;15.90;;
17915;SDS011;9083;49.156;8.982;2022-12-15T03:50:00;34.50;;;16.93;;
17915;SDS011;9083;49.156;8.982;2022-12-15T03:52:27;43.93;;;19.90;;
17915;SDS011;9083;49.156;8.982;2022-12-15T03:54:53;64.27;;;25.90;;
17915;SDS011;9083;49.156;8.982;2022-12-15T03:57:21;36.37;;;17.33;;
17915;SDS011;9083;49.156;8.982;2022-12-15T03:59:48;35.63;;;15.33;;
17915;SDS011;9083;49.156;8.982;2022-12-15T04:02:14;36.00;;;17.33;;
17915;SDS011;9083;49.156;8.982;2022-12-15T04:04:40;36.53;;;15.97;;
17915;SDS011;9083;49.156;8.982;2022-12-15T04:07:07;32.03;;;16.33;;
17915;SDS011;9083;49.156;8.982;2022-12-15T04:09:34;34.97;;;17.93;;
17915;SDS011;9083;49.156;8.982;2022-12-15T04:12:00;40.37;;;19.23;;
17915;SDS011;9083;49.156;8.982;2022-12-15T04:14:28;34.60;;;17.20;;
17915;SDS011;9083;49.156;8.982;2022-12-15T04:16:55;42.70;;;22.53;;
17915;SDS011;9083;49.156;8.982;2022-12-15T04:19:22;33.37;;;15.73;;
17915;SDS011;9083;49.156;8.982;2022-12-15T04:22:05;33.07;;;16.73;;
17915;SDS011;9083;49.156;8.982;2022-12-15T04:24:32;38.63;;;15.87;;
17915;SDS011;9083;49.156;8.982;2022-12-15T04:27:15;31.03;;;13.90;;
17915;SDS011;9083;49.156;8.982;2022-12-15T04:30:01;32.30;;;15.30;;
17915;SDS011;9083;49.156;8.982;2022-12-15T04:32:45;29.60;;;13.67;;
17915;SDS011;9083;49.156;8.982;2022-12-15T04:35:29;31.07;;;13.60;;
17915;SDS011;9083;49.156;8.982;2022-12-15T04:38:13;33.93;;;14.53;;
17915;SDS011;9083;49.156;8.982;2022-12-15T04:40:57;31.47;;;14.13;;
17915;SDS011;9083;49.156;8.982;2022-12-15T04:43:41;29.20;;;14.60;;
17915;SDS011;9083;49.156;8.982;2022-12-15T04:46:26;32.00;;;15.10;;
17915;SDS011;9083;49.156;8.982;2022-12-15T04:49:10;47.73;;;20.77;;
17915;SDS011;9083;49.156;8.982;2022-12-15T04:51:54;36.73;;;17.10;;
17915;SDS011;9083;49.156;8.982;2022-12-15T04:54:38;32.00;;;15.27;;
17915;SDS011;9083;49.156;8.982;2022-12-15T04:57:22;48.10;;;18.10;;
17915;SDS011;9083;49.156;8.982;2022-12-15T05:00:06;33.47;;;16.97;;
17915;SDS011;9083;49.156;8.982;2022-12-15T05:02:52;37.70;;;16.53;;
17915;SDS011;9083;49.156;8.982;2022-12-15T05:05:36;42.00;;;18.10;;
17915;SDS011;9083;49.156;8.982;2022-12-15T05:08:20;53.27;;;21.77;;
17915;SDS011;9083;49.156;8.982;2022-12-15T05:11:04;37.40;;;18.13;;
17915;SDS011;9083;49.156;8.982;2022-12-15T05:13:48;34.47;;;17.13;;
17915;SDS011;9083;49.156;8.982;2022-12-15T05:16:32;46.30;;;22.00;;
17915;SDS011;9083;49.156;8.982;2022-12-15T05:19:17;48.30;;;19.83;;
17915;SDS011;9083;49.156;8.982;2022-12-15T05:22:01;37.80;;;16.50;;
17915;SDS011;9083;49.156;8.982;2022-12-15T05:24:45;40.60;;;16.47;;
17915;SDS011;9083;49.156;8.982;2022-12-15T05:27:29;42.23;;;17.27;;
17915;SDS011;9083;49.156;8.982;2022-12-15T05:30:13;44.17;;;17.43;;
17915;SDS011;9083;49.156;8.982;2022-12-15T05:32:57;42.73;;;19.30;;
17915;SDS011;9083;49.156;8.982;2022-12-15T05:35:29;47.40;;;18.43;;
17915;SDS011;9083;49.156;8.982;2022-12-15T05:37:55;49.83;;;21.50;;
17915;SDS011;9083;49.156;8.982;2022-12-15T05:40:22;39.43;;;19.30;;
17915;SDS011;9083;49.156;8.982;2022-12-15T05:42:48;36.87;;;17.73;;
17915;SDS011;9083;49.156;8.982;2022-12-15T05:45:15;40.93;;;17.73;;
17915;SDS011;9083;49.156;8.982;2022-12-15T05:47:41;36.97;;;17.60;;
17915;SDS011;9083;49.156;8.982;2022-12-15T05:50:08;43.87;;;18.67;;
17915;SDS011;9083;49.156;8.982;2022-12-15T05:52:36;33.73;;;17.47;;
17915;SDS011;9083;49.156;8.982;2022-12-15T05:55:02;48.27;;;18.77;;
17915;SDS011;9083;49.156;8.982;2022-12-15T05:57:29;40.07;;;18.60;;
17915;SDS011;9083;49.156;8.982;2022-12-15T05:59:56;48.53;;;19.23;;
17915;SDS011;9083;49.156;8.982;2022-12-15T06:02:22;43.57;;;18.80;;
17915;SDS011;9083;49.156;8.982;2022-12-15T06:04:49;43.87;;;18.00;;
17915;SDS011;9083;49.156;8.982;2022-12-15T06:07:15;32.77;;;14.53;;
17915;SDS011;9083;49.156;8.982;2022-12-15T06:09:43;33.10;;;14.83;;
17915;SDS011;9083;49.156;8.982;2022-12-15T06:12:10;42.20;;;17.53;;
17915;SDS011;9083;49.156;8.982;2022-12-15T06:14:36;34.80;;;15.97;;
17915;SDS011;9083;49.156;8.982;2022-12-15T06:17:03;41.70;;;19.03;;
17915;SDS011;9083;49.156;8.982;2022-12-15T06:19:29;47.13;;;18.90;;
17915;SDS011;9083;49.156;8.982;2022-12-15T06:21:55;42.37;;;16.90;;
17915;SDS011;9083;49.156;8.982;2022-12-15T06:24:22;41.40;;;17.50;;
17915;SDS011;9083;49.156;8.982;2022-12-15T06:26:50;32.40;;;16.00;;
17915;SDS011;9083;49.156;8.982;2022-12-15T06:29:16;36.47;;;15.83;;
17915;SDS011;9083;49.156;8.982;2022-12-15T06:31:43;28.50;;;15.20;;
17915;SDS011;9083;49.156;8.982;2022-12-15T06:34:11;31.77;;;16.03;;
17915;SDS011;9083;49.156;8.982;2022-12-15T06:36:37;32.77;;;16.27;;
17915;SDS011;9083;49.156;8.982;2022-12-15T06:39:04;44.93;;;19.60;;
17915;SDS011;9083;49.156;8.982;2022-12-15T06:41:32;48.47;;;19.70;;
17915;SDS011;9083;49.156;8.982;2022-12-15T06:44:00;40.37;;;18.03;;
17915;SDS011;9083;49.156;8.982;2022-12-15T06:46:27;33.73;;;17.00;;
17915;SDS011;9083;49.156;8.982;2022-12-15T06:48:53;31.47;;;15.77;;
17915;SDS011;9083;49.156;8.982;2022-12-15T06:51:20;40.73;;;17.47;;
17915;SDS011;9083;49.156;8.982;2022-12-15T06:53:50;30.83;;;16.53;;
17915;SDS011;9083;49.156;8.982;2022-12-15T06:56:18;36.77;;;16.00;;
17915;SDS011;9083;49.156;8.982;2022-12-15T06:58:45;34.27;;;15.07;;
17915;SDS011;9083;49.156;8.982;2022-12-15T07:01:13;29.67;;;15.17;;
17915;SDS011;9083;49.156;8.982;2022-12-15T07:03:40;33.03;;;15.87;;
17915;SDS011;9083;49.156;8.982;2022-12-15T07:06:07;35.23;;;14.57;;
17915;SDS011;9083;49.156;8.982;2022-12-15T07:08:34;34.60;;;15.07;;
17915;SDS011;9083;49.156;8.982;2022-12-15T07:11:01;38.57;;;15.37;;
17915;SDS011;9083;49.156;8.982;2022-12-15T07:13:28;37.60;;;18.07;;
17915;SDS011;9083;49.156;8.982;2022-12-15T07:15:57;34.60;;;16.37;;
17915;SDS011;9083;49.156;8.982;2022-12-15T07:18:25;40.27;;;16.13;;
17915;SDS011;9083;49.156;8.982;2022-12-15T07:20:51;32.73;;;15.63;;
17915;SDS011;9083;49.156;8.982;2022-12-15T07:23:18;36.80;;;19.10;;
17915;SDS011;9083;49.156;8.982;2022-12-15T07:25:44;39.53;;;18.20;;
17915;SDS011;9083;49.156;8.982;2022-12-15T07:28:10;38.63;;;18.43;;
17915;SDS011;9083;49.156;8.982;2022-12-15T07:30:37;46.20;;;18.80;;
17915;SDS011;9083;49.156;8.982;2022-12-15T07:33:04;38.63;;;16.43;;
17915;SDS011;9083;49.156;8.982;2022-12-15T07:35:32;37.77;;;18.40;;
17915;SDS011;9083;49.156;8.982;2022-12-15T07:37:58;38.07;;;16.70;;
17915;SDS011;9083;49.156;8.982;2022-12-15T07:40:25;36.07;;;18.33;;
17915;SDS011;9083;49.156;8.982;2022-12-15T07:42:51;37.73;;;15.57;;
17915;SDS011;9083;49.156;8.982;2022-12-15T07:45:18;37.23;;;16.93;;
17915;SDS011;9083;49.156;8.982;2022-12-15T07:47:47;41.40;;;17.40;;
17915;SDS011;9083;49.156;8.982;2022-12-15T07:50:14;41.70;;;17.00;;
17915;SDS011;9083;49.156;8.982;2022-12-15T07:52:42;40.60;;;18.77;;
17915;SDS011;9083;49.156;8.982;2022-12-15T07:55:08;38.37;;;17.03;;
17915;SDS011;9083;49.156;8.982;2022-12-15T07:57:35;35.93;;;17.17;;
17915;SDS011;9083;49.156;8.982;2022-12-15T08:00:01;33.80;;;16.47;;
17915;SDS011;9083;49.156;8.982;2022-12-15T08:02:29;45.73;;;19.37;;
17915;SDS011;9083;49.156;8.982;2022-12-15T08:04:56;33.17;;;17.63;;
17915;SDS011;9083;49.156;8.982;2022-12-15T08:07:22;38.73;;;17.10;;
17915;SDS011;9083;49.156;8.982;2022-12-15T08:09:50;35.10;;;16.43;;
17915;SDS011;9083;49.156;8.982;2022-12-15T08:12:17;36.93;;;16.83;;
17915;SDS011;9083;49.156;8.982;2022-12-15T08:14:44;37.33;;;16.97;;
17915;SDS011;9083;49.156;8.982;2022-12-15T08:17:10;41.67;;;17.50;;
17915;SDS011;9083;49.156;8.982;2022-12-15T08:19:37;33.30;;;15.77;;
17915;SDS011;9083;49.156;8.982;2022-12-15T08:22:03;36.97;;;15.97;;
17915;SDS011;9083;49.156;8.982;2022-12-15T08:24:30;33.63;;;15.87;;
17915;SDS011;9083;49.156;8.982;2022-12-15T08:26:58;36.53;;;16.80;;
17915;SDS011;9083;49.156;8.982;2022-12-15T08:29:24;41.50;;;17.27;;
17915;SDS011;9083;49.156;8.982;2022-12-15T08:31:51;42.90;;;18.77;;
17915;SDS011;9083;49.156;8.982;2022-12-15T08:34:17;43.10;;;20.63;;
17915;SDS011;9083;49.156;8.982;2022-12-15T08:36:44;42.73;;;20.03;;
17915;SDS011;9083;49.156;8.982;2022-12-15T08:39:10;43.47;;;19.47;;
17915;SDS011;9083;49.156;8.982;2022-12-15T08:41:37;42.43;;;19.50;;
17915;SDS011;9083;49.156;8.982;2022-12-15T08:44:06;43.37;;;18.20;;
17915;SDS011;9083;49.156;8.982;2022-12-15T08:46:33;37.73;;;17.57;;
17915;SDS011;9083;49.156;8.982;2022-12-15T08:48:59;52.27;;;20.03;;
17915;SDS011;9083;49.156;8.982;2022-12-15T08:51:27;39.27;;;18.57;;
17915;SDS011;9083;49.156;8.982;2022-12-15T08:53:53;41.63;;;19.47;;
17915;SDS011;9083;49.156;8.982;2022-12-15T08:56:20;38.50;;;17.53;;
17915;SDS011;9083;49.156;8.982;2022-12-15T08:58:48;35.80;;;16.27;;
17915;SDS011;9083;49.156;8.982;2022-12-15T09:01:17;41.70;;;19.10;;
17915;SDS011;9083;49.156;8.982;2022-12-15T09:03:44;41.90;;;18.03;;
17915;SDS011;9083;49.156;8.982;2022-12-15T09:06:11;33.57;;;16.97;;
17915;SDS011;9083;49.156;8.982;2022-12-15T09:08:38;42.50;;;16.47;;
17915;SDS011;9083;49.156;8.982;2022-12-15T09:11:05;41.73;;;16.90;;
17915;SDS011;9083;49.156;8.982;2022-12-15T09:13:32;40.10;;;17.23;;
17915;SDS011;9083;49.156;8.982;2022-12-15T09:15:58;42.80;;;17.37;;
17915;SDS011;9083;49.156;8.982;2022-12-15T09:18:26;43.30;;;17.37;;
17915;SDS011;9083;49.156;8.982;2022-12-15T09:20:59;41.57;;;17.50;;
17915;SDS011;9083;49.156;8.982;2022-12-15T09:23:25;37.77;;;16.53;;
17915;SDS011;9083;49.156;8.982;2022-12-15T09:25:57;40.40;;;18.03;;
17915;SDS011;9083;49.156;8.982;2022-12-15T09:28:24;43.83;;;19.40;;
17915;SDS011;9083;49.156;8.982;2022-12-15T09:30:50;40.17;;;17.30;;
17915;SDS011;9083;49.156;8.982;2022-12-15T09:33:17;43.67;;;17.13;;
17915;SDS011;9083;49.156;8.982;2022-12-15T09:35:49;42.87;;;17.40;;
17915;SDS011;9083;49.156;8.982;2022-12-15T09:38:16;46.87;;;20.17;;
17915;SDS011;9083;49.156;8.982;2022-12-15T09:40:42;45.33;;;20.87;;
17915;SDS011;9083;49.156;8.982;2022-12-15T09:43:08;41.77;;;18.63;;
17915;SDS011;9083;49.156;8.982;2022-12-15T09:45:38;43.20;;;19.23;;
17915;SDS011;9083;49.156;8.982;2022-12-15T09:48:05;50.93;;;19.87;;
17915;SDS011;9083;49.156;8.982;2022-12-15T09:50:35;39.10;;;18.17;;
17915;SDS011;9083;49.156;8.982;2022-12-15T09:53:05;48.80;;;19.33;;
17915;SDS011;9083;49.156;8.982;2022-12-15T09:55:34;44.63;;;19.50;;
17915;SDS011;9083;49.156;8.982;2022-12-15T09:58:01;39.37;;;17.53;;
17915;SDS011;9083;49.156;8.982;2022-12-15T10:00:32;57.80;;;22.50;;
17915;SDS011;9083;49.156;8.982;2022-12-15T10:03:22;50.17;;;22.50;;
17915;SDS011;9083;49.156;8.982;2022-12-15T10:05:58;40.47;;;18.00;;
17915;SDS011;9083;49.156;8.982;2022-12-15T10:08:29;43.73;;;18.23;;
17915;SDS011;9083;49.156;8.982;2022-12-15T10:10:56;45.17;;;21.33;;
17915;SDS011;9083;49.156;8.982;2022-12-15T10:13:24;43.33;;;17.40;;
17915;SDS011;9083;49.156;8.982;2022-12-15T10:15:55;46.10;;;19.87;;
17915;SDS011;9083;49.156;8.982;2022-12-15T10:18:24;40.07;;;17.40;;
17915;SDS011;9083;49.156;8.982;2022-12-15T10:20:52;44.37;;;16.90;;
17915;SDS011;9083;49.156;8.982;2022-12-15T10:23:19;42.77;;;18.17;;
17915;SDS011;9083;49.156;8.982;2022-12-15T10:25:48;45.07;;;20.13;;
17915;SDS011;9083;49.156;8.982;2022-12-15T10:28:20;46.70;;;20.70;;
17915;SDS011;9083;49.156;8.982;2022-12-15T10:30:51;43.27;;;18.67;;
17915;SDS011;9083;49.156;8.982;2022-12-15T10:33:21;40.83;;;16.03;;
17915;SDS011;9083;49.156;8.982;2022-12-15T10:35:49;36.20;;;17.67;;
17915;SDS011;9083;49.156;8.982;2022-12-15T10:38:21;44.60;;;19.13;;
17915;SDS011;9083;49.156;8.982;2022-12-15T10:40:50;37.67;;;18.20;;
17915;SDS011;9083;49.156;8.982;2022-12-15T10:43:26;46.27;;;17.40;;
17915;SDS011;9083;49.156;8.982;2022-12-15T10:46:00;37.80;;;18.20;;
17915;SDS011;9083;49.156;8.982;2022-12-15T10:48:27;45.87;;;18.40;;
17915;SDS011;9083;49.156;8.982;2022-12-15T10:51:01;39.20;;;17.43;;
17915;SDS011;9083;49.156;8.982;2022-12-15T10:53:37;43.43;;;18.13;;
17915;SDS011;9083;49.156;8.982;2022-12-15T10:56:06;35.60;;;16.57;;
17915;SDS011;9083;49.156;8.982;2022-12-15T10:58:37;37.40;;;16.37;;
17915;SDS011;9083;49.156;8.982;2022-12-15T11:01:13;40.87;;;19.13;;
17915;SDS011;9083;49.156;8.982;2022-12-15T11:03:40;39.30;;;18.70;;
17915;SDS011;9083;49.156;8.982;2022-12-15T11:06:09;48.70;;;21.13;;
17915;SDS011;9083;49.156;8.982;2022-12-15T11:08:36;46.97;;;18.57;;
17915;SDS011;9083;49.156;8.982;2022-12-15T11:11:02;40.63;;;18.73;;
17915;SDS011;9083;49.156;8.982;2022-12-15T11:14:02;42.73;;;17.33;;
17915;SDS011;9083;49.156;8.982;2022-12-15T11:16:29;49.17;;;21.30;;
17915;SDS011;9083;49.156;8.982;2022-12-15T11:18:57;48.30;;;22.40;;
17915;SDS011;9083;49.156;8.982;2022-12-15T11:21:28;40.50;;;18.80;;
17915;SDS011;9083;49.156;8.982;2022-12-15T11:23:57;56.27;;;23.13;;
17915;SDS011;9083;49.156;8.982;2022-12-15T11:26:26;57.97;;;24.03;;
17915;SDS011;9083;49.156;8.982;2022-12-15T11:28:57;54.47;;;23.57;;
17915;SDS011;9083;49.156;8.982;2022-12-15T11:31:29;46.47;;;21.10;;
17915;SDS011;9083;49.156;8.982;2022-12-15T11:33:57;39.30;;;19.83;;
17915;SDS011;9083;49.156;8.982;2022-12-15T11:36:28;50.47;;;20.43;;
17915;SDS011;9083;49.156;8.982;2022-12-15T11:39:00;37.87;;;17.10;;
17915;SDS011;9083;49.156;8.982;2022-12-15T11:41:30;36.60;;;17.03;;
17915;SDS011;9083;49.156;8.982;2022-12-15T11:44:07;44.63;;;19.17;;
17915;SDS011;9083;49.156;8.982;2022-12-15T11:46:40;34.27;;;15.07;;
17915;SDS011;9083;49.156;8.982;2022-12-15T11:49:13;42.07;;;16.07;;
17915;SDS011;9083;49.156;8.982;2022-12-15T11:51:44;37.93;;;16.37;;
17915;SDS011;9083;49.156;8.982;2022-12-15T11:54:17;38.83;;;17.10;;
17915;SDS011;9083;49.156;8.982;2022-12-15T11:56:46;39.83;;;16.83;;
17915;SDS011;9083;49.156;8.982;2022-12-15T11:59:25;39.60;;;17.33;;
17915;SDS011;9083;49.156;8.982;2022-12-15T12:01:59;47.37;;;18.30;;
17915;SDS011;9083;49.156;8.982;2022-12-15T12:04:27;40.70;;;18.23;;
17915;SDS011;9083;49.156;8.982;2022-12-15T12:06:59;36.87;;;16.27;;
17915;SDS011;9083;49.156;8.982;2022-12-15T12:09:29;47.43;;;19.00;;
17915;SDS011;9083;49.156;8.982;2022-12-15T12:11:59;40.97;;;18.73;;
17915;SDS011;9083;49.156;8.982;2022-12-15T12:14:30;45.07;;;18.60;;
17915;SDS011;9083;49.156;8.982;2022-12-15T12:17:04;35.07;;;16.60;;
17915;SDS011;9083;49.156;8.982;2022-12-15T12:19:33;40.53;;;16.43;;
17915;SDS011;9083;49.156;8.982;2022-12-15T12:22:04;38.97;;;17.47;;
17915;SDS011;9083;49.156;8.982;2022-12-15T12:24:32;40.53;;;17.80;;
17915;SDS011;9083;49.156;8.982;2022-12-15T12:27:03;47.70;;;21.43;;
17915;SDS011;9083;49.156;8.982;2022-12-15T12:29:32;39.03;;;17.53;;
17915;SDS011;9083;49.156;8.982;2022-12-15T12:32:03;41.40;;;19.13;;
17915;SDS011;9083;49.156;8.982;2022-12-15T12:34:34;36.03;;;18.77;;
17915;SDS011;9083;49.156;8.982;2022-12-15T12:37:06;44.47;;;19.13;;
17915;SDS011;9083;49.156;8.982;2022-12-15T12:39:34;36.77;;;16.47;;
17915;SDS011;9083;49.156;8.982;2022-12-15T12:42:02;40.37;;;19.43;;
17915;SDS011;9083;49.156;8.982;2022-12-15T12:44:30;41.23;;;19.23;;
17915;SDS011;9083;49.156;8.982;2022-12-15T12:47:05;39.60;;;19.00;;
17915;SDS011;9083;49.156;8.982;2022-12-15T12:49:35;39.70;;;18.77;;
17915;SDS011;9083;49.156;8.982;2022-12-15T12:52:03;40.73;;;19.30;;
17915;SDS011;9083;49.156;8.982;2022-12-15T12:54:41;52.90;;;24.03;;
17915;SDS011;9083;49.156;8.982;2022-12-15T12:59:55;43.30;;;19.07;;
17915;SDS011;9083;49.156;8.982;2022-12-15T13:02:42;45.13;;;20.30;;
17915;SDS011;9083;49.156;8.982;2022-12-15T13:05:29;43.00;;;17.43;;
17915;SDS011;9083;49.156;8.982;2022-12-15T13:10:38;38.10;;;18.40;;
17915;SDS011;9083;49.156;8.982;2022-12-15T13:13:14;37.87;;;18.20;;
17915;SDS011;9083;49.156;8.982;2022-12-15T13:15:41;36.97;;;17.83;;
17915;SDS011;9083;49.156;8.982;2022-12-15T13:18:12;37.80;;;17.93;;
17915;SDS011;9083;49.156;8.982;2022-12-15T13:20:40;44.23;;;20.50;;
17915;SDS011;9083;49.156;8.982;2022-12-15T13:26:00;39.50;;;18.57;;
17915;SDS011;9083;49.156;8.982;2022-12-15T13:28:38;49.50;;;20.77;;
17915;SDS011;9083;49.156;8.982;2022-12-15T13:31:26;35.70;;;16.00;;
17915;SDS011;9083;49.156;8.982;2022-12-15T13:34:00;38.57;;;17.67;;
17915;SDS011;9083;49.156;8.982;2022-12-15T13:36:47;41.20;;;19.43;;
17915;SDS011;9083;49.156;8.982;2022-12-15T13:45:14;45.83;;;19.70;;
17915;SDS011;9083;49.156;8.982;2022-12-15T13:47:41;45.17;;;20.13;;
17915;SDS011;9083;49.156;8.982;2022-12-15T13:50:17;40.90;;;19.37;;
17915;SDS011;9083;49.156;8.982;2022-12-15T13:52:45;44.53;;;19.83;;
17915;SDS011;9083;49.156;8.982;2022-12-15T13:55:15;37.73;;;17.23;;
17915;SDS011;9083;49.156;8.982;2022-12-15T13:57:44;44.53;;;18.30;;
17915;SDS011;9083;49.156;8.982;2022-12-15T14:00:14;48.07;;;20.20;;
17915;SDS011;9083;49.156;8.982;2022-12-15T14:02:42;39.43;;;17.50;;
17915;SDS011;9083;49.156;8.982;2022-12-15T14:05:12;43.33;;;18.70;;
17915;SDS011;9083;49.156;8.982;2022-12-15T14:07:42;45.40;;;19.67;;
17915;SDS011;9083;49.156;8.982;2022-12-15T14:10:15;43.23;;;20.13;;
17915;SDS011;9083;49.156;8.982;2022-12-15T14:12:42;41.33;;;19.20;;
17915;SDS011;9083;49.156;8.982;2022-12-15T14:15:10;38.67;;;18.27;;
17915;SDS011;9083;49.156;8.982;2022-12-15T14:17:37;41.77;;;19.33;;
17915;SDS011;9083;49.156;8.982;2022-12-15T14:20:09;45.60;;;20.30;;
17915;SDS011;9083;49.156;8.982;2022-12-15T14:22:39;41.87;;;17.43;;
17915;SDS011;9083;49.156;8.982;2022-12-15T14:25:13;49.37;;;20.83;;
17915;SDS011;9083;49.156;8.982;2022-12-15T14:27:39;68.47;;;28.47;;
17915;SDS011;9083;49.156;8.982;2022-12-15T14:30:10;47.87;;;21.80;;
17915;SDS011;9083;49.156;8.982;2022-12-15T14:32:36;39.10;;;18.37;;
17915;SDS011;9083;49.156;8.982;2022-12-15T14:35:03;49.30;;;24.20;;
17915;SDS011;9083;49.156;8.982;2022-12-15T14:37:30;43.13;;;19.40;;
17915;SDS011;9083;49.156;8.982;2022-12-15T14:39:56;48.30;;;20.30;;
17915;SDS011;9083;49.156;8.982;2022-12-15T14:42:25;36.00;;;17.43;;
17915;SDS011;9083;49.156;8.982;2022-12-15T14:44:53;42.80;;;18.40;;
17915;SDS011;9083;49.156;8.982;2022-12-15T14:47:21;38.60;;;18.43;;
17915;SDS011;9083;49.156;8.982;2022-12-15T14:49:48;39.23;;;18.60;;
17915;SDS011;9083;49.156;8.982;2022-12-15T14:52:21;39.97;;;18.00;;
17915;SDS011;9083;49.156;8.982;2022-12-15T14:54:51;37.27;;;18.07;;
17915;SDS011;9083;49.156;8.982;2022-12-15T14:57:19;43.57;;;20.67;;
17915;SDS011;9083;49.156;8.982;2022-12-15T14:59:48;42.87;;;20.87;;
17915;SDS011;9083;49.156;8.982;2022-12-15T15:02:17;36.40;;;17.37;;
17915;SDS011;9083;49.156;8.982;2022-12-15T15:04:53;38.93;;;19.07;;
17915;SDS011;9083;49.156;8.982;2022-12-15T15:07:20;42.07;;;22.17;;
17915;SDS011;9083;49.156;8.982;2022-12-15T15:09:47;42.80;;;19.00;;
17915;SDS011;9083;49.156;8.982;2022-12-15T15:12:14;50.07;;;24.23;;
17915;SDS011;9083;49.156;8.982;2022-12-15T15:14:42;38.43;;;17.93;;
17915;SDS011;9083;49.156;8.982;2022-12-15T15:17:15;37.33;;;17.07;;